Monastir Skanes, Tunisia

2:23 AM CET on September 22, 2014 (GMT +0100)
Habib Bourguiba | Change Station
CLOSE
Current Station
Airport
Location: Habib Bourguiba,
Elevation: 7 ft
Nearby Weather Stations

Elev 7 ft 35.76 °N, 10.75 °E | Updated 23 minutes ago

Clear
Clear
82 °F
Feels Like 88 °F
N
5
Wind Variable Wind from ESE

Today
High -- | Low -- °F
--% Chance of Precip.
Yesterday
High -- | Low -- °F
Precip. -- in
6:04 AM 6:14 PM
Waning Crescent, 4% visible
Pressure 29.98 in
Visibility -9999.0 miles
Clouds
Heat Index 88 °F
Dew Point 73 °F
Humidity 74%
Rainfall 0.00 in
Snow Depth Not available.
UV Not available.
Pollen Not available.
Air Quality Not available.
Flu Activity Not available.
METAR DTMB 220100Z 12004KT CAVOK 28/23 Q1015 NOSIG

More Conditions Fewer Conditions

Pressure 29.98 in
Visibility -9999.0 miles
Clouds
Heat Index 88 °F
Dew Point 73 °F
Humidity 74%
Rainfall 0.00 in
Snow Depth Not available.
UV Not available.
Pollen Not available.
Air Quality Not available.
Flu Activity Not available.
METAR DTMB 220100Z 12004KT CAVOK 28/23 Q1015 NOSIG

More Conditions Fewer Conditions

10-Day Weather Forecast

Almanac

Astronomy

Sep. 22, 2014 Rise Set
Actual Time 6:04 AM CET 6:14 PM CET
Civil Twilight 5:39 AM CET 6:39 PM CET
Nautical Twilight 5:09 AM CET 7:09 PM CET
Astronomical Twilight 4:39 AM CET 7:39 PM CET
Moon 4:20 AM CET 5:11 PM CET
Length of Visible Light 13h 00m
Length of Day
12h 09m
Tomorrow will be 2m 13s shorter.
Waning Crescent, 4% of the Moon is Illuminated
Sep 21
Waning Crescent
Sep 24
New
Oct 1
First Quarter
Oct 8
Full
Oct 15
Last Quarter

Yesterday's Extremes

Country Highs Country Lows

Community

WunderPhotos

Upload Photos

1,755,342 photos uploaded!

WunderBlogs® & News

Nearby

Snow Depth

Not available.

Earthquake Activity

City Distance Mag. Time & Date
No recent earthquake activity has been reported nearby.
Minimum magnitude displayed is 2.5.

Coastal Water Temperatures

Place Temperature
No Stations Reporting

Nearby Weather Stations